createdAt,value
2017-04-01T00:01:08.811Z,0
2017-04-01T00:02:22.066Z,0
2017-04-01T00:03:35.293Z,0
2017-04-01T00:04:48.503Z,0
2017-04-01T00:06:01.235Z,0
2017-04-01T00:07:14.475Z,0
2017-04-01T00:08:27.691Z,0
2017-04-01T00:09:40.427Z,0
2017-04-01T00:10:53.159Z,0
2017-04-01T00:12:05.916Z,0
2017-04-01T00:13:18.121Z,0
2017-04-01T00:14:30.878Z,0
2017-04-01T00:15:43.589Z,0
2017-04-01T00:16:56.787Z,0
2017-04-01T00:18:10.055Z,0
2017-04-01T00:19:22.253Z,0
2017-04-01T00:20:35.521Z,0
2017-04-01T00:21:48.752Z,0
2017-04-01T00:23:02.006Z,0
2017-04-01T00:24:14.714Z,0
2017-04-01T00:25:27.433Z,0
2017-04-01T00:26:40.685Z,0
2017-04-01T00:27:53.920Z,0
2017-04-01T00:29:07.135Z,0
2017-04-01T00:30:20.390Z,0
2017-04-01T00:31:33.111Z,0
2017-04-01T00:32:46.328Z,0
2017-04-01T00:33:59.566Z,0
2017-04-01T00:35:12.795Z,0
2017-04-01T00:36:26.094Z,0
2017-04-01T00:37:38.785Z,0
2017-04-01T00:38:52.021Z,0
2017-04-01T00:40:05.245Z,0
2017-04-01T00:41:18.014Z,0
2017-04-01T00:42:31.270Z,0
2017-04-01T00:43:44.832Z,0
2017-04-01T00:44:58.062Z,0
2017-04-01T00:46:11.293Z,0
2017-04-01T00:47:24.522Z,0
2017-04-01T00:48:36.236Z,0
2017-04-01T00:49:49.437Z,0
2017-04-01T00:51:02.151Z,0
2017-04-01T00:52:15.397Z,0
2017-04-01T00:53:28.599Z,0
2017-04-01T00:54:41.317Z,0
2017-04-01T00:55:54.575Z,0
2017-04-01T00:57:07.299Z,0
2017-04-01T00:58:20.544Z,0
2017-04-01T00:59:32.725Z,0
2017-04-01T01:00:45.467Z,0
2017-04-01T01:01:58.710Z,0
2017-04-01T01:03:11.930Z,0
2017-04-01T01:04:25.170Z,0
2017-04-01T01:05:38.438Z,0
2017-04-01T01:06:51.664Z,0
2017-04-01T01:08:04.881Z,0
2017-04-01T01:09:17.568Z,0
2017-04-01T01:10:30.809Z,0
2017-04-01T01:11:43.522Z,0
2017-04-01T01:12:56.231Z,0
2017-04-01T01:14:09.467Z,0
2017-04-01T01:15:22.643Z,0
2017-04-01T01:16:35.885Z,0
2017-04-01T01:17:48.592Z,0
2017-04-01T01:19:01.845Z,0
2017-04-01T01:20:15.042Z,0
2017-04-01T01:21:28.298Z,0
2017-04-01T01:22:40.992Z,0
2017-04-01T01:23:53.695Z,0
2017-04-01T01:25:06.904Z,0
2017-04-01T01:26:20.101Z,0
2017-04-01T01:27:33.358Z,0
2017-04-01T01:28:46.592Z,0
2017-04-01T01:29:59.833Z,0
2017-04-01T01:31:13.091Z,0
2017-04-01T01:32:26.358Z,0
2017-04-01T01:33:39.565Z,0
2017-04-01T01:34:52.810Z,0
2017-04-01T01:36:05.550Z,0
2017-04-01T01:37:18.794Z,0
2017-04-01T01:38:32.023Z,0
2017-04-01T01:39:44.765Z,0
2017-04-01T01:40:57.466Z,0
2017-04-01T01:42:10.187Z,0
2017-04-01T01:43:23.414Z,0
2017-04-01T01:44:36.644Z,0
2017-04-01T01:45:49.900Z,0
2017-04-01T01:47:03.094Z,0
2017-04-01T01:48:15.342Z,0
2017-04-01T01:49:28.588Z,0
2017-04-01T01:50:41.831Z,0
2017-04-01T01:51:54.530Z,0
2017-04-01T01:53:07.805Z,0
2017-04-01T01:54:21.041Z,0
2017-04-01T01:55:34.241Z,0
2017-04-01T01:56:47.450Z,0
2017-04-01T01:58:00.682Z,0
2017-04-01T01:59:13.905Z,0
2017-04-01T02:00:26.621Z,0
2017-04-01T02:01:39.876Z,0
2017-04-01T02:02:53.104Z,0
2017-04-01T02:04:05.790Z,0
2017-04-01T02:05:18.527Z,0
2017-04-01T02:06:31.283Z,0
2017-04-01T02:07:44.555Z,0
2017-04-01T02:08:57.822Z,0
2017-04-01T02:10:11.098Z,0
2017-04-01T02:11:23.802Z,0
2017-04-01T02:12:36.544Z,0
2017-04-01T02:13:49.766Z,0
2017-04-01T02:15:02.509Z,0
2017-04-01T02:16:15.748Z,0
2017-04-01T02:17:28.974Z,0
2017-04-01T02:18:42.197Z,0
2017-04-01T02:19:55.435Z,0
2017-04-01T02:21:08.639Z,0
2017-04-01T02:22:21.884Z,0
2017-04-01T02:23:34.598Z,0
2017-04-01T02:24:46.771Z,0
2017-04-01T02:25:59.990Z,0
2017-04-01T02:27:13.226Z,0
2017-04-01T02:28:26.458Z,0
2017-04-01T02:29:39.671Z,0
2017-04-01T02:30:52.903Z,0
2017-04-01T02:32:06.162Z,0
2017-04-01T02:33:19.377Z,0
2017-04-01T02:34:32.074Z,0
2017-04-01T02:35:44.816Z,0
2017-04-01T02:36:57.008Z,0
2017-04-01T02:38:10.242Z,0
2017-04-01T02:39:23.515Z,0
2017-04-01T02:40:36.791Z,0
2017-04-01T02:41:49.560Z,0
2017-04-01T02:43:02.817Z,0
2017-04-01T02:44:16.035Z,0
2017-04-01T02:45:28.264Z,0
2017-04-01T02:46:40.446Z,0
2017-04-01T02:47:53.681Z,0
2017-04-01T02:49:06.928Z,0
2017-04-01T02:50:19.625Z,0
2017-04-01T02:51:32.327Z,0
2017-04-01T02:52:44.516Z,0
2017-04-01T02:53:57.222Z,0
2017-04-01T02:55:10.414Z,0
2017-04-01T02:56:23.663Z,0
2017-04-01T02:57:36.407Z,0
2017-04-01T02:58:48.587Z,0
2017-04-01T03:00:01.327Z,0
2017-04-01T03:01:14.588Z,0
2017-04-01T03:02:27.808Z,0
2017-04-01T03:03:41.019Z,0
2017-04-01T03:04:54.257Z,0
2017-04-01T03:06:07.520Z,0
2017-04-01T03:07:19.749Z,0
2017-04-01T03:08:32.988Z,0
2017-04-01T03:09:46.212Z,0
2017-04-01T03:10:59.447Z,0
2017-04-01T03:12:12.713Z,0
2017-04-01T03:13:25.441Z,0
2017-04-01T03:14:38.634Z,0
2017-04-01T03:15:51.855Z,0
2017-04-01T03:17:05.110Z,0
2017-04-01T03:18:17.308Z,0
2017-04-01T03:19:30.511Z,0
2017-04-01T03:20:43.744Z,0
2017-04-01T03:21:56.945Z,0
2017-04-01T03:23:09.709Z,0
2017-04-01T03:24:22.958Z,0
2017-04-01T03:25:35.693Z,0
2017-04-01T03:26:48.418Z,0
2017-04-01T03:28:01.669Z,0
2017-04-01T03:29:14.883Z,0
2017-04-01T03:30:28.108Z,0
2017-04-01T03:31:41.334Z,0
2017-04-01T03:32:53.523Z,0
2017-04-01T03:34:06.770Z,0
2017-04-01T03:35:20.065Z,0
2017-04-01T03:36:33.294Z,0
2017-04-01T03:37:45.997Z,0
2017-04-01T03:38:58.712Z,0
2017-04-01T03:40:11.424Z,0
2017-04-01T03:41:24.134Z,0
2017-04-01T03:42:37.389Z,0
2017-04-01T03:43:50.638Z,0
2017-04-01T03:45:03.888Z,0
2017-04-01T03:46:17.109Z,0
2017-04-01T03:47:29.813Z,0
2017-04-01T03:48:43.029Z,0
2017-04-01T03:49:56.328Z,0
2017-04-01T03:51:09.077Z,0
2017-04-01T03:52:22.320Z,0
2017-04-01T03:53:35.002Z,0
2017-04-01T03:54:47.708Z,0
2017-04-01T03:56:00.904Z,0
2017-04-01T03:57:13.615Z,0
2017-04-01T03:58:26.826Z,0
2017-04-01T03:59:40.039Z,0
2017-04-01T04:00:53.289Z,0
2017-04-01T04:02:06.530Z,0
2017-04-01T04:03:19.751Z,0
2017-04-01T04:04:32.959Z,0
2017-04-01T04:05:46.207Z,0
2017-04-01T04:06:59.463Z,0
2017-04-01T04:08:12.153Z,0
2017-04-01T04:09:25.357Z,0
2017-04-01T04:10:38.616Z,0
2017-04-01T04:11:50.845Z,0
2017-04-01T04:13:03.524Z,0
2017-04-01T04:14:17.031Z,0
2017-04-01T04:15:30.288Z,0
2017-04-01T04:16:43.544Z,0
2017-04-01T04:17:56.768Z,0
2017-04-01T04:19:09.979Z,0
2017-04-01T04:20:23.231Z,0
2017-04-01T04:21:36.450Z,0
2017-04-01T04:22:49.733Z,0
2017-04-01T04:24:02.958Z,0
2017-04-01T04:25:16.178Z,0
2017-04-01T04:26:28.921Z,0
2017-04-01T04:27:42.163Z,0
2017-04-01T04:28:55.390Z,0
2017-04-01T04:30:08.632Z,0
2017-04-01T04:31:21.851Z,0
2017-04-01T04:32:34.541Z,0
2017-04-01T04:33:47.748Z,0
2017-04-01T04:35:00.968Z,0
2017-04-01T04:36:13.654Z,0
2017-04-01T04:37:26.886Z,0
2017-04-01T04:38:39.618Z,0
2017-04-01T04:39:52.855Z,0
2017-04-01T04:41:06.080Z,0
2017-04-01T04:42:19.350Z,0
2017-04-01T04:43:32.575Z,0
2017-04-01T04:44:45.832Z,0
2017-04-01T04:45:59.066Z,0
2017-04-01T04:47:11.754Z,0
2017-04-01T04:48:25.016Z,0
2017-04-01T04:49:38.224Z,0
2017-04-01T04:50:51.475Z,0
2017-04-01T04:52:04.723Z,0
2017-04-01T04:53:17.960Z,0
2017-04-01T04:54:30.683Z,0
2017-04-01T04:55:43.908Z,0
2017-04-01T04:56:57.155Z,0
2017-04-01T04:58:09.903Z,0
2017-04-01T04:59:23.154Z,0
2017-04-01T05:00:36.394Z,0
2017-04-01T05:01:49.616Z,0
2017-04-01T05:03:02.353Z,0
2017-04-01T05:04:15.098Z,0
2017-04-01T05:05:28.320Z,0
2017-04-01T05:06:41.064Z,0
2017-04-01T05:07:54.268Z,0
2017-04-01T05:09:07.454Z,0
2017-04-01T05:10:20.686Z,0
2017-04-01T05:11:33.958Z,0
2017-04-01T05:12:47.189Z,0
2017-04-01T05:13:59.928Z,0
2017-04-01T05:15:13.155Z,0
2017-04-01T05:16:24.868Z,0
2017-04-01T05:17:38.135Z,0
2017-04-01T05:18:50.890Z,0
2017-04-01T05:20:04.103Z,0
2017-04-01T05:21:16.807Z,0
2017-04-01T05:22:30.034Z,0
2017-04-01T05:23:42.720Z,0
2017-04-01T05:24:55.927Z,0
2017-04-01T05:26:09.139Z,0
2017-04-01T05:27:22.352Z,0
2017-04-01T05:28:35.575Z,0
2017-04-01T05:29:48.812Z,0
2017-04-01T05:31:02.036Z,0
2017-04-01T05:32:14.807Z,0
2017-04-01T05:33:28.053Z,0
2017-04-01T05:34:41.252Z,0
2017-04-01T05:35:53.441Z,0
2017-04-01T05:37:06.698Z,0
2017-04-01T05:38:19.437Z,0
2017-04-01T05:39:32.673Z,0
2017-04-01T05:40:45.940Z,0
2017-04-01T05:41:59.185Z,0
2017-04-01T05:43:12.410Z,0
2017-04-01T05:44:25.142Z,0
2017-04-01T05:45:37.895Z,0
2017-04-01T05:46:51.216Z,0
2017-04-01T05:48:03.955Z,0
2017-04-01T05:49:16.662Z,0
2017-04-01T05:50:29.917Z,0
2017-04-01T05:51:43.147Z,0
2017-04-01T05:52:56.369Z,0
2017-04-01T05:54:08.597Z,0
2017-04-01T05:55:21.338Z,0
2017-04-01T05:56:34.615Z,0
2017-04-01T05:57:47.867Z,0
2017-04-01T05:59:01.096Z,0
2017-04-01T06:00:13.803Z,0
2017-04-01T06:01:27.047Z,0
2017-04-01T06:02:40.270Z,0
2017-04-01T06:03:53.696Z,0
2017-04-01T06:05:06.924Z,0
2017-04-01T06:06:19.649Z,0
2017-04-01T06:07:32.896Z,0
2017-04-01T06:08:46.134Z,0
2017-04-01T06:09:59.320Z,0
2017-04-01T06:11:12.036Z,0
2017-04-01T06:12:25.266Z,0
2017-04-01T06:13:38.511Z,0
2017-04-01T06:14:51.283Z,0
2017-04-01T06:16:04.538Z,0
2017-04-01T06:17:17.788Z,0
2017-04-01T06:18:30.515Z,0
2017-04-01T06:19:43.761Z,0
2017-04-01T06:20:56.984Z,0
2017-04-01T06:22:10.211Z,0
2017-04-01T06:23:23.427Z,0
2017-04-01T06:24:36.667Z,0
2017-04-01T06:25:49.903Z,0
2017-04-01T06:27:03.131Z,0
2017-04-01T06:28:16.338Z,0
2017-04-01T06:29:29.568Z,0
2017-04-01T06:30:42.799Z,0
2017-04-01T06:31:56.038Z,0
2017-04-01T06:33:09.281Z,0
2017-04-01T06:34:22.478Z,0
2017-04-01T06:35:34.662Z,0
2017-04-01T06:36:47.874Z,0
2017-04-01T06:37:59.540Z,0
2017-04-01T06:39:12.820Z,0
2017-04-01T06:40:26.060Z,0
2017-04-01T06:41:39.296Z,0
2017-04-01T06:42:52.007Z,0
2017-04-01T06:44:05.254Z,0
2017-04-01T06:45:18.008Z,0
2017-04-01T06:46:31.215Z,0
2017-04-01T06:47:44.459Z,0
2017-04-01T06:48:57.688Z,0
2017-04-01T06:50:10.443Z,0
2017-04-01T06:51:23.140Z,0
2017-04-01T06:52:36.368Z,0
2017-04-01T06:53:49.104Z,0
2017-04-01T06:55:02.368Z,0
2017-04-01T06:56:14.633Z,0
2017-04-01T06:57:27.856Z,0
2017-04-01T06:58:41.092Z,0
2017-04-01T06:59:54.339Z,0
2017-04-01T07:01:07.067Z,0
2017-04-01T07:02:20.332Z,0
2017-04-01T07:03:32.041Z,0
2017-04-01T07:04:45.294Z,0
2017-04-01T07:05:58.603Z,0
2017-04-01T07:07:11.314Z,0
2017-04-01T07:08:24.554Z,0
2017-04-01T07:09:37.279Z,0
2017-04-01T07:10:50.481Z,0
2017-04-01T07:12:03.735Z,0
2017-04-01T07:13:16.945Z,0
2017-04-01T07:14:30.154Z,0
2017-04-01T07:15:43.369Z,0
2017-04-01T07:16:56.573Z,0
2017-04-01T07:18:09.813Z,0
2017-04-01T07:19:23.035Z,0
2017-04-01T07:20:35.769Z,0
2017-04-01T07:21:47.970Z,0
2017-04-01T07:23:01.194Z,0
2017-04-01T07:24:13.941Z,0
2017-04-01T07:25:27.159Z,0
2017-04-01T07:26:40.420Z,0
2017-04-01T07:27:53.651Z,0
2017-04-01T07:29:06.414Z,0
2017-04-01T07:30:18.643Z,0
2017-04-01T07:31:31.863Z,0
2017-04-01T07:32:45.104Z,0
2017-04-01T07:33:57.825Z,0
2017-04-01T07:35:10.530Z,0
2017-04-01T07:36:23.766Z,0
2017-04-01T07:37:37.011Z,0
2017-04-01T07:38:50.258Z,0
2017-04-01T07:40:03.000Z,0
2017-04-01T07:41:15.197Z,0
2017-04-01T07:42:28.447Z,0
2017-04-01T07:43:41.645Z,0
2017-04-01T07:44:54.851Z,0
2017-04-01T07:46:08.052Z,0
2017-04-01T07:47:21.302Z,0
2017-04-01T07:48:34.561Z,0
2017-04-01T07:49:47.795Z,0
2017-04-01T07:50:59.989Z,0
2017-04-01T07:52:12.715Z,0
2017-04-01T07:53:25.955Z,0
2017-04-01T07:54:39.187Z,0
2017-04-01T07:55:51.905Z,0
2017-04-01T07:57:05.156Z,0
2017-04-01T07:58:18.442Z,0
2017-04-01T07:59:31.151Z,0
2017-04-01T08:00:43.841Z,0
2017-04-01T08:01:56.023Z,0
2017-04-01T08:03:09.295Z,0
2017-04-01T08:04:22.517Z,0
2017-04-01T08:05:35.733Z,0
2017-04-01T08:06:48.999Z,0
2017-04-01T08:08:02.232Z,0
2017-04-01T08:09:14.433Z,0
2017-04-01T08:10:27.158Z,0
2017-04-01T08:11:40.399Z,0
2017-04-01T08:12:53.618Z,0
2017-04-01T08:14:06.368Z,0
2017-04-01T08:15:19.621Z,0
2017-04-01T08:16:32.825Z,0
2017-04-01T08:17:46.274Z,0
2017-04-01T08:18:59.489Z,0
2017-04-01T08:20:12.232Z,0
2017-04-01T08:21:25.489Z,0
2017-04-01T08:22:38.739Z,0
2017-04-01T08:23:51.978Z,0
2017-04-01T08:25:05.242Z,0
2017-04-01T08:26:18.497Z,0
2017-04-01T08:27:31.768Z,0
2017-04-01T08:28:45.017Z,0
2017-04-01T08:29:58.266Z,0
2017-04-01T08:31:11.488Z,0
2017-04-01T08:32:24.725Z,0
2017-04-01T08:33:38.016Z,0
2017-04-01T08:34:50.744Z,0
2017-04-01T08:36:03.975Z,0
2017-04-01T08:37:16.688Z,0
2017-04-01T08:38:29.945Z,0
2017-04-01T08:39:42.708Z,0
2017-04-01T08:40:55.965Z,0
2017-04-01T08:42:09.190Z,0
2017-04-01T08:43:22.382Z,0
2017-04-01T08:44:35.629Z,0
2017-04-01T08:45:48.378Z,0
2017-04-01T08:47:01.595Z,0
2017-04-01T08:48:14.820Z,0
2017-04-01T08:49:28.048Z,0
2017-04-01T08:50:41.262Z,0
2017-04-01T08:51:54.478Z,4
2017-04-01T08:53:07.693Z,4
2017-04-01T08:54:20.918Z,4
2017-04-01T08:55:34.143Z,4
2017-04-01T08:56:47.369Z,4
2017-04-01T08:58:00.652Z,8
2017-04-01T08:59:13.891Z,12
2017-04-01T09:00:26.618Z,24
2017-04-01T09:01:39.833Z,32
2017-04-01T09:02:53.054Z,48
2017-04-01T09:04:05.788Z,68
2017-04-01T09:05:18.496Z,84
2017-04-01T09:06:31.713Z,100
2017-04-01T09:07:44.898Z,112
2017-04-01T09:08:58.127Z,140
2017-04-01T09:10:11.371Z,156
2017-04-01T09:11:24.629Z,188
2017-04-01T09:12:37.893Z,280
2017-04-01T09:13:51.137Z,316
2017-04-01T09:15:04.376Z,400
2017-04-01T09:16:17.626Z,464
2017-04-01T09:17:30.365Z,536
2017-04-01T09:18:43.575Z,576
2017-04-01T09:19:56.768Z,664
2017-04-01T09:21:10.007Z,752
2017-04-01T09:22:22.718Z,788
2017-04-01T09:23:35.978Z,796
2017-04-01T09:24:49.217Z,896
2017-04-01T09:26:01.905Z,1040
2017-04-01T09:27:15.136Z,1252
2017-04-01T09:28:28.341Z,1384
2017-04-01T09:29:41.602Z,1584
2017-04-01T09:30:54.853Z,1840
2017-04-01T09:32:08.114Z,1932
2017-04-01T09:33:21.322Z,2124
2017-04-01T09:34:33.995Z,2268
2017-04-01T09:35:46.719Z,2676
2017-04-01T09:36:59.931Z,3044
2017-04-01T09:38:13.174Z,3296
2017-04-01T09:39:25.882Z,3424
2017-04-01T09:40:39.086Z,3488
2017-04-01T09:41:52.299Z,3752
2017-04-01T09:43:05.540Z,4380
2017-04-01T09:44:18.265Z,4924
2017-04-01T09:45:30.992Z,6212
2017-04-01T09:46:43.756Z,7552
2017-04-01T09:47:56.450Z,6192
2017-04-01T09:49:09.653Z,5288
2017-04-01T09:50:22.359Z,11504
2017-04-01T09:51:35.062Z,6188
2017-04-01T09:52:48.308Z,5768
2017-04-01T09:54:01.562Z,5632
2017-04-01T09:55:13.787Z,7912
2017-04-01T09:56:26.508Z,7816
2017-04-01T09:57:39.749Z,11108
2017-04-01T09:58:51.943Z,18720
2017-04-01T10:00:05.188Z,18880
2017-04-01T10:01:18.440Z,8024
2017-04-01T10:02:31.660Z,8776
2017-04-01T10:03:44.886Z,7672
2017-04-01T10:04:57.080Z,24416
2017-04-01T10:06:09.820Z,8960
2017-04-01T10:07:22.541Z,19264
2017-04-01T10:08:35.779Z,27456
2017-04-01T10:09:49.007Z,22144
2017-04-01T10:11:01.706Z,12220
2017-04-01T10:12:14.949Z,8228
2017-04-01T10:13:27.648Z,7484
2017-04-01T10:14:40.873Z,8328
2017-04-01T10:15:54.096Z,11468
2017-04-01T10:17:06.811Z,9868
2017-04-01T10:18:19.526Z,9740
2017-04-01T10:19:32.754Z,8752
2017-04-01T10:20:45.976Z,8876
2017-04-01T10:21:59.189Z,10496
2017-04-01T10:23:11.880Z,9900
2017-04-01T10:24:24.573Z,9392
2017-04-01T10:25:37.845Z,9420
2017-04-01T10:26:51.073Z,9960
2017-04-01T10:28:04.295Z,9376
2017-04-01T10:29:17.510Z,8228
2017-04-01T10:30:30.724Z,8308
2017-04-01T10:31:43.940Z,8744
2017-04-01T10:32:57.188Z,9616
2017-04-01T10:34:09.912Z,9976
2017-04-01T10:35:23.175Z,10176
2017-04-01T10:36:36.397Z,10776
2017-04-01T10:37:49.658Z,10860
2017-04-01T10:39:02.914Z,11024
2017-04-01T10:40:16.155Z,9524
2017-04-01T10:41:29.420Z,9692
2017-04-01T10:42:42.146Z,10392
2017-04-01T10:43:55.368Z,10012
2017-04-01T10:45:08.640Z,10660
2017-04-01T10:46:21.891Z,10500
2017-04-01T10:47:35.121Z,12008
2017-04-01T10:48:47.828Z,12860
2017-04-01T10:50:01.056Z,13420
2017-04-01T10:51:14.278Z,13996
2017-04-01T10:52:26.960Z,13744
2017-04-01T10:53:40.162Z,13912
2017-04-01T10:54:53.357Z,12976
2017-04-01T10:56:06.077Z,12152
2017-04-01T10:57:18.791Z,13316
2017-04-01T10:58:32.091Z,14108
2017-04-01T10:59:45.348Z,14588
2017-04-01T11:00:58.567Z,13820
2017-04-01T11:02:11.785Z,16468
2017-04-01T11:03:24.525Z,27584
2017-04-01T11:04:37.745Z,72128
2017-04-01T11:05:50.991Z,29120
2017-04-01T11:07:04.261Z,15428
2017-04-01T11:08:17.507Z,14456
2017-04-01T11:09:29.735Z,12308
2017-04-01T11:10:42.964Z,11056
2017-04-01T11:11:56.169Z,12284
2017-04-01T11:13:08.911Z,12700
2017-04-01T11:14:21.609Z,14192
2017-04-01T11:15:34.808Z,13496
2017-04-01T11:16:47.996Z,12528
2017-04-01T11:18:00.724Z,13172
2017-04-01T11:19:12.914Z,17264
2017-04-01T11:20:24.615Z,21760
2017-04-01T11:21:37.873Z,68064
2017-04-01T11:22:51.094Z,27968
2017-04-01T11:24:04.320Z,22240
2017-04-01T11:25:17.552Z,21472
2017-04-01T11:26:30.823Z,19584
2017-04-01T11:27:44.084Z,19744
2017-04-01T11:28:56.770Z,21504
2017-04-01T11:30:09.985Z,22944
2017-04-01T11:31:23.492Z,22816
2017-04-01T11:32:36.829Z,22784
2017-04-01T11:33:50.064Z,23456
2017-04-01T11:35:02.777Z,22816
2017-04-01T11:36:15.020Z,23392
2017-04-01T11:37:28.258Z,24064
2017-04-01T11:38:41.455Z,27360
2017-04-01T11:39:54.715Z,30464
2017-04-01T11:41:07.433Z,31424
2017-04-01T11:42:20.656Z,37952
2017-04-01T11:43:33.876Z,56320
2017-04-01T11:44:47.097Z,56736
2017-04-01T11:46:00.351Z,56128
2017-04-01T11:47:13.122Z,54144
2017-04-01T11:48:26.378Z,60032
2017-04-01T11:49:39.586Z,66368
2017-04-01T11:50:52.835Z,59712
2017-04-01T11:52:05.571Z,64384
2017-04-01T11:53:18.318Z,30336
2017-04-01T11:54:31.567Z,70528
2017-04-01T11:55:44.802Z,66880
2017-04-01T11:56:57.484Z,62272
2017-04-01T11:58:10.197Z,61984
2017-04-01T11:59:23.445Z,64288
2017-04-01T12:00:36.688Z,71168
2017-04-01T12:01:49.901Z,80416
2017-04-01T12:03:03.139Z,85952
2017-04-01T12:04:16.373Z,84800
2017-04-01T12:05:29.095Z,84096
2017-04-01T12:06:41.809Z,30656
2017-04-01T12:07:55.017Z,30400
2017-04-01T12:09:08.343Z,27008
2017-04-01T12:10:21.564Z,30208
2017-04-01T12:11:34.788Z,24480
2017-04-01T12:12:48.035Z,24384
2017-04-01T12:14:00.786Z,102144
2017-04-01T12:15:14.035Z,48960
2017-04-01T12:16:27.286Z,102208
2017-04-01T12:17:40.512Z,42752
2017-04-01T12:18:53.743Z,82464
2017-04-01T12:20:06.489Z,116800
2017-04-01T12:21:18.685Z,124224
2017-04-01T12:22:31.908Z,123424
2017-04-01T12:23:45.134Z,116224
2017-04-01T12:24:57.863Z,114432
2017-04-01T12:26:11.103Z,111040
2017-04-01T12:27:24.319Z,112064
2017-04-01T12:28:37.561Z,108384
2017-04-01T12:29:50.781Z,105568
2017-04-01T12:31:04.052Z,103552
2017-04-01T12:32:16.294Z,87648
2017-04-01T12:33:28.499Z,84992
2017-04-01T12:34:41.752Z,21280
2017-04-01T12:35:54.981Z,64672
2017-04-01T12:37:08.209Z,29632
2017-04-01T12:38:21.459Z,28192
2017-04-01T12:39:34.716Z,54208
2017-04-01T12:40:47.961Z,48896
2017-04-01T12:42:01.195Z,21472
2017-04-01T12:43:13.925Z,45632
2017-04-01T12:44:26.672Z,26816
2017-04-01T12:45:39.921Z,54688
2017-04-01T12:46:53.149Z,49760
2017-04-01T12:48:06.371Z,44448
2017-04-01T12:49:19.092Z,48096
2017-04-01T12:50:32.354Z,51616
2017-04-01T12:51:45.596Z,53984
2017-04-01T12:52:58.841Z,57056
2017-04-01T12:54:12.072Z,57856
2017-04-01T12:55:24.305Z,60448
2017-04-01T12:56:37.043Z,62080
2017-04-01T12:57:50.296Z,63520
2017-04-01T12:59:03.532Z,59840
2017-04-01T13:00:16.764Z,54240
2017-04-01T13:01:29.472Z,55520
2017-04-01T13:02:42.202Z,50240
2017-04-01T13:03:55.453Z,36672
2017-04-01T13:05:08.715Z,17328
2017-04-01T13:06:21.477Z,17492
2017-04-01T13:07:34.738Z,16704
2017-04-01T13:08:47.491Z,16680
2017-04-01T13:09:59.693Z,17136
2017-04-01T13:11:12.940Z,20256
2017-04-01T13:12:25.135Z,24224
2017-04-01T13:13:38.362Z,28512
2017-04-01T13:14:51.592Z,33728
2017-04-01T13:16:04.856Z,40960
2017-04-01T13:17:18.131Z,42464
2017-04-01T13:18:31.372Z,47296
2017-04-01T13:19:44.611Z,56384
2017-04-01T13:20:57.838Z,35232
2017-04-01T13:22:11.075Z,58144
2017-04-01T13:23:23.310Z,59200
2017-04-01T13:24:36.098Z,59680
2017-04-01T13:25:49.335Z,22816
2017-04-01T13:27:02.600Z,20544
2017-04-01T13:28:15.346Z,18592
2017-04-01T13:29:28.574Z,16736
2017-04-01T13:30:41.337Z,16992
2017-04-01T13:31:54.577Z,16076
2017-04-01T13:33:07.806Z,16696
2017-04-01T13:34:21.010Z,20448
2017-04-01T13:35:34.244Z,24768
2017-04-01T13:36:47.475Z,30720
2017-04-01T13:38:00.191Z,38816
2017-04-01T13:39:13.429Z,59616
2017-04-01T13:40:25.652Z,50240
2017-04-01T13:41:38.887Z,41632
2017-04-01T13:42:52.153Z,31680
2017-04-01T13:44:04.388Z,29568
2017-04-01T13:45:17.655Z,29760
2017-04-01T13:46:30.868Z,30464
2017-04-01T13:47:44.121Z,31232
2017-04-01T13:48:57.363Z,33856
2017-04-01T13:50:09.584Z,38272
2017-04-01T13:51:22.865Z,44160
2017-04-01T13:52:35.585Z,54272
2017-04-01T13:53:47.833Z,56832
2017-04-01T13:55:01.074Z,86464
2017-04-01T13:56:13.812Z,75840
2017-04-01T13:57:27.081Z,92384
2017-04-01T13:58:40.325Z,69696
2017-04-01T13:59:52.526Z,70144
2017-04-01T14:01:05.250Z,45184
2017-04-01T14:02:18.490Z,59808
2017-04-01T14:03:31.714Z,70752
2017-04-01T14:04:44.951Z,47136
2017-04-01T14:05:56.655Z,67328
2017-04-01T14:07:09.930Z,73632
2017-04-01T14:08:22.709Z,70144
2017-04-01T14:09:35.422Z,77696
2017-04-01T14:10:48.173Z,80576
2017-04-01T14:12:01.396Z,49760
2017-04-01T14:13:14.645Z,43232
2017-04-01T14:14:27.361Z,41856
2017-04-01T14:15:40.119Z,70016
2017-04-01T14:16:53.371Z,59424
2017-04-01T14:18:06.610Z,86176
2017-04-01T14:19:18.830Z,48704
2017-04-01T14:20:32.135Z,42208
2017-04-01T14:21:44.904Z,55872
2017-04-01T14:22:58.145Z,42688
2017-04-01T14:24:11.435Z,42880
2017-04-01T14:25:24.671Z,85184
2017-04-01T14:26:37.930Z,77760
2017-04-01T14:27:51.164Z,74144
2017-04-01T14:29:03.900Z,32192
2017-04-01T14:30:17.153Z,71744
2017-04-01T14:31:30.392Z,70592
2017-04-01T14:32:43.648Z,68192
2017-04-01T14:33:56.883Z,69728
2017-04-01T14:35:10.139Z,69696
2017-04-01T14:36:23.417Z,69152
2017-04-01T14:37:35.133Z,69888
2017-04-01T14:38:48.377Z,71968
2017-04-01T14:40:00.097Z,73440
2017-04-01T14:41:12.883Z,77472
2017-04-01T14:42:25.628Z,82016
2017-04-01T14:43:38.349Z,82752
2017-04-01T14:44:51.608Z,83072
2017-04-01T14:46:04.886Z,84768
2017-04-01T14:47:18.142Z,85888
2017-04-01T14:48:31.388Z,85184
2017-04-01T14:49:44.095Z,84960
2017-04-01T14:50:57.342Z,89728
2017-04-01T14:52:10.567Z,90592
2017-04-01T14:53:22.805Z,89600
2017-04-01T14:54:36.043Z,91488
2017-04-01T14:55:49.305Z,97568
2017-04-01T14:57:02.543Z,105504
2017-04-01T14:58:15.762Z,110880
2017-04-01T14:59:27.984Z,105184
2017-04-01T15:00:41.193Z,106432
2017-04-01T15:01:54.420Z,109568
2017-04-01T15:03:07.636Z,111200
2017-04-01T15:04:20.852Z,107040
2017-04-01T15:05:33.576Z,106080
2017-04-01T15:06:46.321Z,107648
2017-04-01T15:07:59.022Z,99744
2017-04-01T15:09:12.279Z,91840
2017-04-01T15:10:25.017Z,86208
2017-04-01T15:11:37.761Z,80992
2017-04-01T15:12:51.001Z,68512
2017-04-01T15:14:04.250Z,72608
2017-04-01T15:15:16.977Z,35040
2017-04-01T15:16:30.239Z,71392
2017-04-01T15:17:42.984Z,70016
2017-04-01T15:18:56.247Z,73504
2017-04-01T15:20:09.001Z,38080
2017-04-01T15:21:21.729Z,35904
2017-04-01T15:22:34.955Z,60608
2017-04-01T15:23:47.713Z,33472
2017-04-01T15:25:00.942Z,84800
2017-04-01T15:26:13.689Z,92896
2017-04-01T15:27:26.940Z,102720
2017-04-01T15:28:39.690Z,36960
2017-04-01T15:29:52.910Z,37856
2017-04-01T15:31:05.664Z,42304
2017-04-01T15:32:18.917Z,50944
2017-04-01T15:33:31.674Z,49152
2017-04-01T15:34:44.887Z,44224
2017-04-01T15:35:58.119Z,43008
2017-04-01T15:37:10.855Z,41376
2017-04-01T15:38:23.587Z,39200
2017-04-01T15:39:36.827Z,38048
2017-04-01T15:40:50.040Z,41632
2017-04-01T15:42:02.753Z,52640
2017-04-01T15:43:16.047Z,41248
2017-04-01T15:44:29.315Z,36320
2017-04-01T15:45:42.603Z,34912
2017-04-01T15:46:55.840Z,35232
2017-04-01T15:48:09.110Z,37920
2017-04-01T15:49:22.332Z,39616
2017-04-01T15:50:35.567Z,42848
2017-04-01T15:51:48.821Z,41760
2017-04-01T15:53:02.040Z,44032
2017-04-01T15:54:15.256Z,56960
2017-04-01T15:55:28.528Z,73280
2017-04-01T15:56:41.786Z,69824
2017-04-01T15:57:54.514Z,49248
2017-04-01T15:59:07.234Z,62304
2017-04-01T16:00:19.942Z,60640
2017-04-01T16:01:33.179Z,44800
2017-04-01T16:02:45.912Z,56352
2017-04-01T16:03:59.118Z,58016
2017-04-01T16:05:12.317Z,58368
2017-04-01T16:06:25.547Z,59200
2017-04-01T16:07:38.266Z,60128
2017-04-01T16:08:51.468Z,40320
2017-04-01T16:10:04.222Z,54176
2017-04-01T16:11:17.478Z,54048
2017-04-01T16:12:30.721Z,53504
2017-04-01T16:13:42.947Z,52480
2017-04-01T16:14:55.623Z,52416
2017-04-01T16:16:08.912Z,51264
2017-04-01T16:17:21.621Z,51456
2017-04-01T16:18:34.380Z,51616
2017-04-01T16:19:47.633Z,50400
2017-04-01T16:21:00.855Z,50080
2017-04-01T16:22:14.058Z,49856
2017-04-01T16:23:26.785Z,50400
2017-04-01T16:24:40.040Z,50784
2017-04-01T16:25:53.271Z,52000
2017-04-01T16:27:06.017Z,53408
2017-04-01T16:28:19.226Z,56800
2017-04-01T16:29:32.466Z,62624
2017-04-01T16:30:45.751Z,67424
2017-04-01T16:31:58.990Z,72032
2017-04-01T16:33:12.233Z,77344
2017-04-01T16:34:24.962Z,83264
2017-04-01T16:35:37.172Z,81696
2017-04-01T16:36:50.419Z,75232
2017-04-01T16:38:03.655Z,79936
2017-04-01T16:39:16.897Z,87360
2017-04-01T16:40:30.114Z,92032
2017-04-01T16:41:43.367Z,99616
2017-04-01T16:42:56.100Z,99328
2017-04-01T16:44:08.823Z,109984
2017-04-01T16:45:21.551Z,125344
2017-04-01T16:46:33.748Z,17928
2017-04-01T16:47:46.989Z,112832
2017-04-01T16:49:00.484Z,107232
2017-04-01T16:50:13.414Z,106144
2017-04-01T16:51:26.681Z,21824
2017-04-01T16:52:39.973Z,127360